Millenium Air

Millenium Air Since 1998



 METAR AND TAF INFORMATION
METAR FOR ENTC
ADDS - METARS form results

(1745 UTC 29 May 2020)
Data provider http://aviationweather.gov/metar/data/
 
METAR text: ENTC 291720Z 25005KT 9999 FEW009 BKN021 07/05 Q1026 NOSIG RMK WIND 2600FT 29011KT
Conditions at: ENTC (TROMSO/LANGNES , NO) observed 1720 UTC 29 May 2020
Temperature: 7.0°C (45°F)
Dewpoint: 5.0°C (41°F) [RH = 87%]
Pressure (altimeter): 30.30 inches Hg (1026.0 mb)
Winds: from the WSW (250 degrees) at 6 MPH (5 knots; 2.6 m/s)
Visibility: 6 or more miles (10+ km)
Ceiling: 2100 feet AGL
Clouds: few clouds at 900 feet AGL
broken clouds at 2100 feet AGL
Weather: no significant weather observed at this time

METAR text: ENTC 291650Z 28008KT 9999 FEW009 BKN021 07/05 Q1025 NOSIG RMK WIND 2600FT 29015KT
Conditions at: ENTC (TROMSO/LANGNES , NO) observed 1650 UTC 29 May 2020
Temperature: 7.0°C (45°F)
Dewpoint: 5.0°C (41°F) [RH = 87%]
Pressure (altimeter): 30.27 inches Hg (1025.0 mb)
Winds: from the W (280 degrees) at 9 MPH (8 knots; 4.1 m/s)
Visibility: 6 or more miles (10+ km)
Ceiling: 2100 feet AGL
Clouds: few clouds at 900 feet AGL
broken clouds at 2100 feet AGL
Weather: no significant weather observed at this time

Forecast for: AMD
Text: TAF AMD ENTC 2913/3012 22012KT 9999 -RADZ FEW012 BKN025
Forecast period: 1300 UTC 29 May 2020 to 1200 UTC 30 May 2020
Forecast type: FROM: standard forecast or significant change
Winds: from the SW (220 degrees) at 14 MPH (12 knots; 6.2 m/s)
Visibility: 6 or more miles 10+ km)
Ceiling: 2500 feet AGL
Clouds: few clouds at 1200 feet AGL
broken clouds at 2500 feet AGL
Weather: -RA -DZ  (light rain, light drizzle)
Text: TEMPO 2913/2924 BKN008
Forecast period: 1300 UTC 29 May 2020 to 0000 UTC 30 May 2020
Forecast type: TEMPORARY: The following changes expected for less than half the time period
Visibility: missing
Ceiling: 800 feet AGL
Clouds: broken clouds at 800 feet AGL
Weather: no significant weather forecast for this period

 AIRPORT MAP

 RUNWAY INFORMATION
Runway 01 Runway length 7848 ft Runway width 148 ft
Runway elevation 25 ft Runway displaced threshold 0 ft Runway heading 13
Runway 19 Runway length 7848 ft Runway width 148 ft
Runway elevation 13 ft Runway displaced threshold 1286 ft Runway heading 193

 AIRPORT FREQUENCIES
Type APP Name APP Frequency 123.75 MHZ
Type ATIS Name ATIS Frequency 126.125 MHZ
Type TWR Name TWR Frequency 118.3 MHZ

 AIRPORT NEAR NAVIGATION AIDS
Type NDB Name Kobbe Frequency 283 KHZ
Type NDB Name Kvalsund Frequency 362 KHZ
Type NDB Name Lanes Frequency 268 KHZ
Type VOR-DME Name Tromso Frequency 113800 KHZ